Terminal Aerodrome Forecast
Issued by NWS

Home | Current Version | Previous Version | Text Only | Print | Product List | Glossary On
Versions: 1 2 3 4 5 6 7 8 9 10 11 12 13 14 15 16 17 18 19
000
FTUS41 KPBZ 300520
TAFHLG
TAF
KHLG 300520Z 3006/3106 00000KT 5SM HZ BKN250
     FM300800 29005KT P6SM BKN040
     FM301500 29010KT P6SM SCT050=

USA.gov is the U.S. government's official web portal to all federal, state and local government web resources and services.